sensor_id;sensor_type;location;lat;lon;timestamp;pressure;altitude;pressure_sealevel;temperature;humidity
64632;BME280;58358;50.936;0.246;2022-09-09T00:02:05;99737.90;;;13.97;74.85
64632;BME280;58358;50.936;0.246;2022-09-09T00:04:28;99732.40;;;14.38;73.54
64632;BME280;58358;50.936;0.246;2022-09-09T00:07:01;99732.14;;;14.96;71.27
64632;BME280;58358;50.936;0.246;2022-09-09T00:09:19;99723.96;;;15.22;69.99
64632;BME280;58358;50.936;0.246;2022-09-09T00:11:48;99723.35;;;15.71;66.96
64632;BME280;58358;50.936;0.246;2022-09-09T00:14:17;99720.89;;;15.59;67.91
64632;BME280;58358;50.936;0.246;2022-09-09T00:16:40;99721.43;;;16.44;66.43
64632;BME280;58358;50.936;0.246;2022-09-09T00:19:04;99731.52;;;15.68;67.12
64632;BME280;58358;50.936;0.246;2022-09-09T00:21:31;99720.21;;;15.72;67.79
64632;BME280;58358;50.936;0.246;2022-09-09T00:23:53;99714.51;;;14.91;68.48
64632;BME280;58358;50.936;0.246;2022-09-09T00:26:24;99720.92;;;14.51;71.54
64632;BME280;58358;50.936;0.246;2022-09-09T00:28:48;99722.78;;;14.88;70.22
64632;BME280;58358;50.936;0.246;2022-09-09T00:31:12;99734.68;;;14.07;72.88
64632;BME280;58358;50.936;0.246;2022-09-09T00:33:34;99718.25;;;15.10;70.65
64632;BME280;58358;50.936;0.246;2022-09-09T00:36:00;99715.87;;;14.00;72.62
64632;BME280;58358;50.936;0.246;2022-09-09T00:38:31;99721.37;;;13.98;72.61
64632;BME280;58358;50.936;0.246;2022-09-09T00:40:52;99717.21;;;14.48;70.59
64632;BME280;58358;50.936;0.246;2022-09-09T00:43:26;99718.16;;;14.51;71.25
64632;BME280;58358;50.936;0.246;2022-09-09T00:45:54;99715.99;;;14.17;72.43
64632;BME280;58358;50.936;0.246;2022-09-09T00:48:11;99721.03;;;14.12;72.43
64632;BME280;58358;50.936;0.246;2022-09-09T00:50:40;99721.21;;;14.65;71.16
64632;BME280;58358;50.936;0.246;2022-09-09T00:53:09;99719.70;;;15.18;68.75
64632;BME280;58358;50.936;0.246;2022-09-09T00:55:32;99720.53;;;14.29;72.16
64632;BME280;58358;50.936;0.246;2022-09-09T00:57:52;99718.02;;;14.59;69.69
64632;BME280;58358;50.936;0.246;2022-09-09T01:00:20;99711.75;;;15.23;69.03
64632;BME280;58358;50.936;0.246;2022-09-09T01:02:50;99712.13;;;15.49;67.66
64632;BME280;58358;50.936;0.246;2022-09-09T01:05:14;99708.61;;;15.89;66.85
64632;BME280;58358;50.936;0.246;2022-09-09T01:07:33;99706.50;;;15.28;67.17
64632;BME280;58358;50.936;0.246;2022-09-09T01:10:00;99700.82;;;15.89;65.51
64632;BME280;58358;50.936;0.246;2022-09-09T01:12:29;99693.42;;;16.02;64.91
64632;BME280;58358;50.936;0.246;2022-09-09T01:14:52;99691.78;;;15.01;66.33
64632;BME280;58358;50.936;0.246;2022-09-09T01:17:19;99690.49;;;16.24;64.39
64632;BME280;58358;50.936;0.246;2022-09-09T01:19:55;99695.67;;;15.56;65.92
64632;BME280;58358;50.936;0.246;2022-09-09T01:22:13;99692.17;;;16.80;62.41
64632;BME280;58358;50.936;0.246;2022-09-09T01:24:39;99690.16;;;15.53;66.46
64632;BME280;58358;50.936;0.246;2022-09-09T01:26:59;99682.22;;;16.50;63.82
64632;BME280;58358;50.936;0.246;2022-09-09T01:29:24;99684.48;;;16.69;63.35
64632;BME280;58358;50.936;0.246;2022-09-09T01:31:55;99684.90;;;16.53;62.84
64632;BME280;58358;50.936;0.246;2022-09-09T01:34:15;99688.44;;;17.00;62.60
64632;BME280;58358;50.936;0.246;2022-09-09T01:36:46;99693.94;;;16.74;62.30
64632;BME280;58358;50.936;0.246;2022-09-09T01:39:07;99694.28;;;17.07;61.60
64632;BME280;58358;50.936;0.246;2022-09-09T01:41:33;99686.20;;;15.84;64.96
64632;BME280;58358;50.936;0.246;2022-09-09T01:43:58;99678.43;;;16.34;64.06
64632;BME280;58358;50.936;0.246;2022-09-09T01:46:24;99673.72;;;17.69;60.99
64632;BME280;58358;50.936;0.246;2022-09-09T01:48:50;99664.21;;;15.53;64.47
64632;BME280;58358;50.936;0.246;2022-09-09T01:51:15;99664.81;;;16.56;62.83
64632;BME280;58358;50.936;0.246;2022-09-09T01:53:42;99655.78;;;16.53;62.71
64632;BME280;58358;50.936;0.246;2022-09-09T01:56:18;99654.42;;;16.78;61.72
64632;BME280;58358;50.936;0.246;2022-09-09T01:58:41;99649.31;;;16.33;62.75
64632;BME280;58358;50.936;0.246;2022-09-09T02:01:05;99657.63;;;16.52;62.42
64632;BME280;58358;50.936;0.246;2022-09-09T02:03:28;99659.74;;;16.27;62.35
64632;BME280;58358;50.936;0.246;2022-09-09T02:05:56;99666.37;;;16.54;61.16
64632;BME280;58358;50.936;0.246;2022-09-09T02:08:20;99665.20;;;16.85;61.83
64632;BME280;58358;50.936;0.246;2022-09-09T02:10:46;99663.41;;;17.05;61.11
64632;BME280;58358;50.936;0.246;2022-09-09T02:13:11;99659.63;;;16.21;62.11
64632;BME280;58358;50.936;0.246;2022-09-09T02:15:35;99658.23;;;16.58;62.15
64632;BME280;58358;50.936;0.246;2022-09-09T02:17:58;99659.89;;;16.71;61.13
64632;BME280;58358;50.936;0.246;2022-09-09T02:20:24;99656.02;;;16.00;62.89
64632;BME280;58358;50.936;0.246;2022-09-09T02:22:51;99653.94;;;15.58;63.95
64632;BME280;58358;50.936;0.246;2022-09-09T02:25:18;99654.01;;;16.42;63.21
64632;BME280;58358;50.936;0.246;2022-09-09T02:27:43;99655.92;;;16.53;61.87
64632;BME280;58358;50.936;0.246;2022-09-09T02:30:08;99659.60;;;15.76;64.17
64632;BME280;58358;50.936;0.246;2022-09-09T02:32:35;99659.59;;;15.92;64.74
64632;BME280;58358;50.936;0.246;2022-09-09T02:35:02;99661.06;;;15.53;65.23
64632;BME280;58358;50.936;0.246;2022-09-09T02:37:28;99663.33;;;14.41;67.74
64632;BME280;58358;50.936;0.246;2022-09-09T02:39:49;99662.19;;;14.88;65.31
64632;BME280;58358;50.936;0.246;2022-09-09T02:42:15;99668.45;;;14.60;67.22
64632;BME280;58358;50.936;0.246;2022-09-09T02:44:41;99672.38;;;16.11;64.04
64632;BME280;58358;50.936;0.246;2022-09-09T02:47:19;99673.79;;;14.63;67.99
64632;BME280;58358;50.936;0.246;2022-09-09T02:49:40;99676.63;;;15.26;65.62
64632;BME280;58358;50.936;0.246;2022-09-09T02:52:02;99682.82;;;15.94;63.86
64632;BME280;58358;50.936;0.246;2022-09-09T02:54:28;99686.17;;;16.17;62.04
64632;BME280;58358;50.936;0.246;2022-09-09T02:56:52;99689.27;;;16.18;61.05
64632;BME280;58358;50.936;0.246;2022-09-09T02:59:15;99690.47;;;16.42;61.39
64632;BME280;58358;50.936;0.246;2022-09-09T03:01:41;99688.56;;;16.02;62.17
64632;BME280;58358;50.936;0.246;2022-09-09T03:04:06;99692.42;;;14.51;65.58
64632;BME280;58358;50.936;0.246;2022-09-09T03:06:32;99692.33;;;16.21;62.14
64632;BME280;58358;50.936;0.246;2022-09-09T03:08:58;99692.01;;;16.00;61.99
64632;BME280;58358;50.936;0.246;2022-09-09T03:11:23;99694.53;;;16.85;60.53
64632;BME280;58358;50.936;0.246;2022-09-09T03:13:49;99693.86;;;15.86;61.53
64632;BME280;58358;50.936;0.246;2022-09-09T03:16:15;99690.24;;;15.90;62.41
64632;BME280;58358;50.936;0.246;2022-09-09T03:18:41;99691.52;;;16.35;62.24
64632;BME280;58358;50.936;0.246;2022-09-09T03:21:06;99695.03;;;16.15;61.98
64632;BME280;58358;50.936;0.246;2022-09-09T03:23:32;99696.22;;;15.56;63.29
64632;BME280;58358;50.936;0.246;2022-09-09T03:25:58;99698.08;;;16.38;61.61
64632;BME280;58358;50.936;0.246;2022-09-09T03:28:23;99696.79;;;16.28;62.36
64632;BME280;58358;50.936;0.246;2022-09-09T03:30:49;99695.09;;;15.99;61.37
64632;BME280;58358;50.936;0.246;2022-09-09T03:33:15;99694.16;;;16.33;61.53
64632;BME280;58358;50.936;0.246;2022-09-09T03:35:45;99695.64;;;15.79;63.40
64632;BME280;58358;50.936;0.246;2022-09-09T03:38:06;99699.04;;;16.25;61.39
64632;BME280;58358;50.936;0.246;2022-09-09T03:40:32;99703.16;;;16.63;60.59
64632;BME280;58358;50.936;0.246;2022-09-09T03:42:58;99706.06;;;15.18;63.56
64632;BME280;58358;50.936;0.246;2022-09-09T03:45:23;99709.13;;;15.57;63.34
64632;BME280;58358;50.936;0.246;2022-09-09T03:47:49;99714.24;;;14.79;64.84
64632;BME280;58358;50.936;0.246;2022-09-09T03:50:15;99719.09;;;15.97;62.57
64632;BME280;58358;50.936;0.246;2022-09-09T03:52:42;99722.89;;;15.77;63.32
64632;BME280;58358;50.936;0.246;2022-09-09T03:55:07;99728.46;;;14.79;65.74
64632;BME280;58358;50.936;0.246;2022-09-09T03:57:32;99726.49;;;14.94;64.56
64632;BME280;58358;50.936;0.246;2022-09-09T03:59:58;99728.29;;;13.46;68.62
64632;BME280;58358;50.936;0.246;2022-09-09T04:02:23;99726.83;;;14.17;68.40
64632;BME280;58358;50.936;0.246;2022-09-09T04:04:49;99724.99;;;14.06;68.27
64632;BME280;58358;50.936;0.246;2022-09-09T04:07:15;99730.15;;;12.64;72.30
64632;BME280;58358;50.936;0.246;2022-09-09T04:09:41;99726.51;;;12.58;73.86
64632;BME280;58358;50.936;0.246;2022-09-09T04:12:07;99730.46;;;12.97;72.00
64632;BME280;58358;50.936;0.246;2022-09-09T04:14:32;99725.93;;;12.17;75.70
64632;BME280;58358;50.936;0.246;2022-09-09T04:16:58;99731.02;;;12.90;73.45
64632;BME280;58358;50.936;0.246;2022-09-09T04:19:23;99732.87;;;12.82;74.66
64632;BME280;58358;50.936;0.246;2022-09-09T04:21:49;99736.87;;;12.60;73.96
64632;BME280;58358;50.936;0.246;2022-09-09T04:24:15;99738.86;;;13.25;72.21
64632;BME280;58358;50.936;0.246;2022-09-09T04:26:41;99741.03;;;13.03;73.74
64632;BME280;58358;50.936;0.246;2022-09-09T04:29:06;99741.87;;;13.76;70.79
64632;BME280;58358;50.936;0.246;2022-09-09T04:31:32;99742.88;;;13.51;70.31
64632;BME280;58358;50.936;0.246;2022-09-09T04:33:58;99741.52;;;14.32;67.96
64632;BME280;58358;50.936;0.246;2022-09-09T04:36:23;99743.30;;;14.59;68.85
64632;BME280;58358;50.936;0.246;2022-09-09T04:38:50;99743.04;;;13.58;70.83
64632;BME280;58358;50.936;0.246;2022-09-09T04:41:15;99743.22;;;14.40;69.45
64632;BME280;58358;50.936;0.246;2022-09-09T04:43:41;99744.67;;;14.71;68.58
64632;BME280;58358;50.936;0.246;2022-09-09T04:46:07;99749.36;;;14.10;70.01
64632;BME280;58358;50.936;0.246;2022-09-09T04:48:33;99747.62;;;14.18;70.36
64632;BME280;58358;50.936;0.246;2022-09-09T04:50:59;99747.81;;;13.88;70.71
64632;BME280;58358;50.936;0.246;2022-09-09T04:53:24;99754.34;;;13.59;72.79
64632;BME280;58358;50.936;0.246;2022-09-09T04:55:49;99758.98;;;13.84;71.47
64632;BME280;58358;50.936;0.246;2022-09-09T04:58:15;99763.16;;;14.37;70.46
64632;BME280;58358;50.936;0.246;2022-09-09T05:00:41;99762.21;;;14.56;68.92
64632;BME280;58358;50.936;0.246;2022-09-09T05:03:06;99764.06;;;14.69;68.78
64632;BME280;58358;50.936;0.246;2022-09-09T05:05:33;99773.63;;;13.99;71.88
64632;BME280;58358;50.936;0.246;2022-09-09T05:08:03;99774.87;;;13.27;72.83
64632;BME280;58358;50.936;0.246;2022-09-09T05:10:24;99777.86;;;13.29;71.99
64632;BME280;58358;50.936;0.246;2022-09-09T05:12:53;99773.99;;;13.77;70.67
64632;BME280;58358;50.936;0.246;2022-09-09T05:15:15;99778.47;;;14.12;70.36
64632;BME280;58358;50.936;0.246;2022-09-09T05:17:41;99780.76;;;14.30;70.00
64632;BME280;58358;50.936;0.246;2022-09-09T05:20:07;99783.20;;;14.16;69.67
64632;BME280;58358;50.936;0.246;2022-09-09T05:22:32;99780.82;;;14.42;69.19
64632;BME280;58358;50.936;0.246;2022-09-09T05:24:58;99779.64;;;14.12;70.38
64632;BME280;58358;50.936;0.246;2022-09-09T05:27:24;99778.77;;;13.82;70.87
64632;BME280;58358;50.936;0.246;2022-09-09T05:29:49;99776.90;;;13.78;71.25
64632;BME280;58358;50.936;0.246;2022-09-09T05:32:15;99780.31;;;14.05;70.06
64632;BME280;58358;50.936;0.246;2022-09-09T05:34:41;99785.27;;;14.32;70.94
64632;BME280;58358;50.936;0.246;2022-09-09T05:37:06;99789.83;;;13.31;72.82
64632;BME280;58358;50.936;0.246;2022-09-09T05:39:32;99782.28;;;13.95;71.17
64632;BME280;58358;50.936;0.246;2022-09-09T05:41:57;99785.62;;;13.52;72.36
64632;BME280;58358;50.936;0.246;2022-09-09T05:44:23;99794.60;;;14.07;71.60
64632;BME280;58358;50.936;0.246;2022-09-09T05:46:49;99801.11;;;12.56;73.23
64632;BME280;58358;50.936;0.246;2022-09-09T05:49:15;99802.58;;;14.09;70.73
64632;BME280;58358;50.936;0.246;2022-09-09T05:51:41;99802.78;;;14.98;67.95
64632;BME280;58358;50.936;0.246;2022-09-09T05:54:06;99808.01;;;12.74;74.44
64632;BME280;58358;50.936;0.246;2022-09-09T05:56:32;99814.45;;;13.97;70.64
64632;BME280;58358;50.936;0.246;2022-09-09T05:58:57;99818.79;;;14.30;70.41
64632;BME280;58358;50.936;0.246;2022-09-09T06:01:25;99817.36;;;15.23;67.88
64632;BME280;58358;50.936;0.246;2022-09-09T06:03:50;99817.72;;;14.74;67.57
64632;BME280;58358;50.936;0.246;2022-09-09T06:06:16;99819.60;;;14.83;67.26
64632;BME280;58358;50.936;0.246;2022-09-09T06:08:42;99826.59;;;14.67;68.44
64632;BME280;58358;50.936;0.246;2022-09-09T06:11:07;99823.95;;;14.80;68.63
64632;BME280;58358;50.936;0.246;2022-09-09T06:13:32;99825.84;;;14.23;70.71
64632;BME280;58358;50.936;0.246;2022-09-09T06:15:58;99826.40;;;14.26;70.02
64632;BME280;58358;50.936;0.246;2022-09-09T06:18:23;99828.64;;;14.55;69.01
64632;BME280;58358;50.936;0.246;2022-09-09T06:20:55;99828.20;;;13.79;70.95
64632;BME280;58358;50.936;0.246;2022-09-09T06:23:14;99834.54;;;14.21;71.53
64632;BME280;58358;50.936;0.246;2022-09-09T06:25:40;99837.97;;;14.81;69.11
64632;BME280;58358;50.936;0.246;2022-09-09T06:28:06;99842.14;;;15.28;67.43
64632;BME280;58358;50.936;0.246;2022-09-09T06:30:31;99846.22;;;15.36;66.62
64632;BME280;58358;50.936;0.246;2022-09-09T06:32:57;99848.53;;;14.96;68.07
64632;BME280;58358;50.936;0.246;2022-09-09T06:35:23;99855.98;;;14.74;69.28
64632;BME280;58358;50.936;0.246;2022-09-09T06:37:48;99857.53;;;14.65;68.80
64632;BME280;58358;50.936;0.246;2022-09-09T06:40:14;99860.50;;;13.23;73.10
64632;BME280;58358;50.936;0.246;2022-09-09T06:42:42;99866.67;;;13.66;72.26
64632;BME280;58358;50.936;0.246;2022-09-09T06:45:06;99872.01;;;14.97;68.58
64632;BME280;58358;50.936;0.246;2022-09-09T06:47:31;99872.56;;;14.43;69.76
64632;BME280;58358;50.936;0.246;2022-09-09T06:49:56;99875.92;;;14.83;69.02
64632;BME280;58358;50.936;0.246;2022-09-09T06:52:22;99877.39;;;15.25;69.67
64632;BME280;58358;50.936;0.246;2022-09-09T06:54:48;99875.76;;;15.09;67.36
64632;BME280;58358;50.936;0.246;2022-09-09T06:57:14;99882.78;;;15.48;68.58
64632;BME280;58358;50.936;0.246;2022-09-09T06:59:40;99887.06;;;15.29;67.90
64632;BME280;58358;50.936;0.246;2022-09-09T07:02:06;99885.35;;;15.39;67.73
64632;BME280;58358;50.936;0.246;2022-09-09T07:04:31;99888.02;;;15.42;67.12
64632;BME280;58358;50.936;0.246;2022-09-09T07:06:56;99891.20;;;14.35;69.94
64632;BME280;58358;50.936;0.246;2022-09-09T07:09:22;99897.44;;;14.74;68.88
64632;BME280;58358;50.936;0.246;2022-09-09T07:11:50;99901.57;;;15.61;66.41
64632;BME280;58358;50.936;0.246;2022-09-09T07:14:14;99901.14;;;16.00;66.82
64632;BME280;58358;50.936;0.246;2022-09-09T07:16:40;99900.85;;;15.35;68.38
64632;BME280;58358;50.936;0.246;2022-09-09T07:19:05;99911.87;;;14.80;70.19
64632;BME280;58358;50.936;0.246;2022-09-09T07:21:31;99909.49;;;15.61;67.69
64632;BME280;58358;50.936;0.246;2022-09-09T07:23:57;99911.89;;;15.61;67.16
64632;BME280;58358;50.936;0.246;2022-09-09T07:26:24;99916.92;;;15.05;69.65
64632;BME280;58358;50.936;0.246;2022-09-09T07:28:48;99921.27;;;14.63;68.77
64632;BME280;58358;50.936;0.246;2022-09-09T07:31:16;99917.27;;;15.38;67.57
64632;BME280;58358;50.936;0.246;2022-09-09T07:33:39;99925.67;;;15.20;69.04
64632;BME280;58358;50.936;0.246;2022-09-09T07:36:07;99932.86;;;14.46;69.87
64632;BME280;58358;50.936;0.246;2022-09-09T07:38:30;99930.67;;;14.93;69.11
64632;BME280;58358;50.936;0.246;2022-09-09T07:41:04;99935.94;;;15.47;68.32
64632;BME280;58358;50.936;0.246;2022-09-09T07:43:25;99937.77;;;15.18;68.90
64632;BME280;58358;50.936;0.246;2022-09-09T07:45:46;99940.74;;;14.75;68.92
64632;BME280;58358;50.936;0.246;2022-09-09T07:48:12;99943.22;;;14.84;69.40
64632;BME280;58358;50.936;0.246;2022-09-09T07:50:37;99948.91;;;14.69;70.56
64632;BME280;58358;50.936;0.246;2022-09-09T07:53:03;99949.05;;;15.15;69.11
64632;BME280;58358;50.936;0.246;2022-09-09T07:55:29;99947.85;;;14.69;71.16
64632;BME280;58358;50.936;0.246;2022-09-09T07:57:55;99946.69;;;14.82;70.75
64632;BME280;58358;50.936;0.246;2022-09-09T08:00:20;99951.03;;;14.86;69.70
64632;BME280;58358;50.936;0.246;2022-09-09T08:02:46;99958.05;;;14.33;69.41
64632;BME280;58358;50.936;0.246;2022-09-09T08:05:12;99952.49;;;14.45;71.00
64632;BME280;58358;50.936;0.246;2022-09-09T08:07:38;99954.17;;;15.13;69.63
64632;BME280;58358;50.936;0.246;2022-09-09T08:10:04;99959.02;;;14.70;70.13
64632;BME280;58358;50.936;0.246;2022-09-09T08:12:29;99963.65;;;14.85;70.65
64632;BME280;58358;50.936;0.246;2022-09-09T08:14:55;99968.08;;;14.63;69.82
64632;BME280;58358;50.936;0.246;2022-09-09T08:17:20;99968.09;;;15.90;67.00
64632;BME280;58358;50.936;0.246;2022-09-09T08:19:46;99973.40;;;15.06;68.42
64632;BME280;58358;50.936;0.246;2022-09-09T08:22:12;99976.49;;;15.22;67.97
64632;BME280;58358;50.936;0.246;2022-09-09T08:24:37;99983.70;;;15.30;68.74
64632;BME280;58358;50.936;0.246;2022-09-09T08:27:03;99983.20;;;14.39;70.54
64632;BME280;58358;50.936;0.246;2022-09-09T08:29:29;99984.86;;;14.25;71.24
64632;BME280;58358;50.936;0.246;2022-09-09T08:31:57;99992.06;;;14.48;71.23
64632;BME280;58358;50.936;0.246;2022-09-09T08:34:21;99994.97;;;14.12;73.57
64632;BME280;58358;50.936;0.246;2022-09-09T08:36:47;99996.26;;;14.60;69.64
64632;BME280;58358;50.936;0.246;2022-09-09T08:39:13;99995.17;;;14.65;71.14
64632;BME280;58358;50.936;0.246;2022-09-09T08:41:52;100004.02;;;15.17;70.33
64632;BME280;58358;50.936;0.246;2022-09-09T08:44:07;100005.98;;;15.86;67.79
64632;BME280;58358;50.936;0.246;2022-09-09T08:46:36;100014.77;;;15.31;69.36
64632;BME280;58358;50.936;0.246;2022-09-09T08:48:59;100021.65;;;15.05;68.76
64632;BME280;58358;50.936;0.246;2022-09-09T08:51:20;100019.69;;;15.15;68.42
64632;BME280;58358;50.936;0.246;2022-09-09T08:53:49;100021.77;;;15.25;68.46
64632;BME280;58358;50.936;0.246;2022-09-09T08:56:16;100027.51;;;15.91;67.41
64632;BME280;58358;50.936;0.246;2022-09-09T08:58:43;100030.55;;;16.55;65.35
64632;BME280;58358;50.936;0.246;2022-09-09T09:03:36;100036.62;;;15.66;67.23
64632;BME280;58358;50.936;0.246;2022-09-09T09:06:01;100037.46;;;14.70;69.63
64632;BME280;58358;50.936;0.246;2022-09-09T09:08:26;100043.53;;;15.48;68.61
64632;BME280;58358;50.936;0.246;2022-09-09T09:10:47;100057.65;;;15.18;68.12
64632;BME280;58358;50.936;0.246;2022-09-09T09:13:15;100047.74;;;14.93;70.68
64632;BME280;58358;50.936;0.246;2022-09-09T09:15:37;100048.07;;;14.43;71.00
64632;BME280;58358;50.936;0.246;2022-09-09T09:18:03;100057.51;;;15.33;68.57
64632;BME280;58358;50.936;0.246;2022-09-09T09:20:35;100060.82;;;15.51;67.72
64632;BME280;58358;50.936;0.246;2022-09-09T09:22:54;100063.86;;;15.16;68.41
64632;BME280;58358;50.936;0.246;2022-09-09T09:25:20;100064.53;;;15.84;66.61
64632;BME280;58358;50.936;0.246;2022-09-09T09:27:52;100069.66;;;15.31;66.23
64632;BME280;58358;50.936;0.246;2022-09-09T09:30:16;100070.80;;;16.07;66.32
64632;BME280;58358;50.936;0.246;2022-09-09T09:32:36;100076.48;;;16.43;64.50
64632;BME280;58358;50.936;0.246;2022-09-09T09:35:06;100080.00;;;15.88;66.30
64632;BME280;58358;50.936;0.246;2022-09-09T09:37:31;100074.74;;;16.91;64.17
64632;BME280;58358;50.936;0.246;2022-09-09T09:39:53;100083.10;;;15.68;66.85
64632;BME280;58358;50.936;0.246;2022-09-09T09:42:19;100075.71;;;16.92;63.37
64632;BME280;58358;50.936;0.246;2022-09-09T09:44:45;100083.46;;;15.05;66.46
64632;BME280;58358;50.936;0.246;2022-09-09T09:47:12;100086.63;;;16.05;64.36
64632;BME280;58358;50.936;0.246;2022-09-09T09:49:35;100091.79;;;15.91;65.04
64632;BME280;58358;50.936;0.246;2022-09-09T09:52:01;100093.39;;;15.78;64.35
64632;BME280;58358;50.936;0.246;2022-09-09T09:54:28;100099.45;;;16.24;65.13
64632;BME280;58358;50.936;0.246;2022-09-09T09:56:52;100101.77;;;15.85;64.78
64632;BME280;58358;50.936;0.246;2022-09-09T09:59:23;100098.24;;;14.91;68.07
64632;BME280;58358;50.936;0.246;2022-09-09T10:01:44;100104.22;;;14.60;68.74
64632;BME280;58358;50.936;0.246;2022-09-09T10:04:14;100111.75;;;15.09;68.68
64632;BME280;58358;50.936;0.246;2022-09-09T10:06:35;100111.16;;;14.39;69.05
64632;BME280;58358;50.936;0.246;2022-09-09T10:09:00;100112.22;;;15.29;68.02
64632;BME280;58358;50.936;0.246;2022-09-09T10:11:39;100116.89;;;16.52;65.89
64632;BME280;58358;50.936;0.246;2022-09-09T10:13:56;100115.81;;;15.22;65.77
64632;BME280;58358;50.936;0.246;2022-09-09T10:16:26;100118.86;;;15.86;64.66
64632;BME280;58358;50.936;0.246;2022-09-09T10:18:49;100122.04;;;15.36;65.67
64632;BME280;58358;50.936;0.246;2022-09-09T10:21:16;100122.07;;;13.89;69.85
64632;BME280;58358;50.936;0.246;2022-09-09T10:23:45;100131.55;;;15.70;65.34
64632;BME280;58358;50.936;0.246;2022-09-09T10:26:10;100130.76;;;15.02;67.91
64632;BME280;58358;50.936;0.246;2022-09-09T10:28:33;100134.87;;;15.90;65.29
64632;BME280;58358;50.936;0.246;2022-09-09T10:30:58;100137.97;;;16.32;62.72
64632;BME280;58358;50.936;0.246;2022-09-09T10:33:22;100141.08;;;16.16;63.29
64632;BME280;58358;50.936;0.246;2022-09-09T10:35:47;100143.04;;;15.84;64.42
64632;BME280;58358;50.936;0.246;2022-09-09T10:38:13;100151.07;;;16.10;65.01
64632;BME280;58358;50.936;0.246;2022-09-09T10:40:34;100142.87;;;15.68;65.60
64632;BME280;58358;50.936;0.246;2022-09-09T10:43:10;100142.16;;;16.58;63.60
64632;BME280;58358;50.936;0.246;2022-09-09T10:45:30;100144.45;;;17.41;61.44
64632;BME280;58358;50.936;0.246;2022-09-09T10:48:03;100148.08;;;17.28;61.27
64632;BME280;58358;50.936;0.246;2022-09-09T10:50:29;100157.45;;;16.65;62.46
64632;BME280;58358;50.936;0.246;2022-09-09T10:52:46;100154.74;;;17.04;61.74
64632;BME280;58358;50.936;0.246;2022-09-09T10:55:11;100154.26;;;16.53;61.70
64632;BME280;58358;50.936;0.246;2022-09-09T10:57:36;100159.91;;;16.54;62.97
64632;BME280;58358;50.936;0.246;2022-09-09T11:00:03;100157.61;;;16.71;62.52
64632;BME280;58358;50.936;0.246;2022-09-09T11:02:28;100162.82;;;16.97;62.38
64632;BME280;58358;50.936;0.246;2022-09-09T11:04:53;100168.45;;;16.50;61.83
64632;BME280;58358;50.936;0.246;2022-09-09T11:07:22;100168.88;;;16.37;65.24
64632;BME280;58358;50.936;0.246;2022-09-09T11:09:45;100169.12;;;17.08;63.60
64632;BME280;58358;50.936;0.246;2022-09-09T11:12:12;100162.01;;;16.64;63.40
64632;BME280;58358;50.936;0.246;2022-09-09T11:14:36;100161.56;;;17.23;61.94
64632;BME280;58358;50.936;0.246;2022-09-09T11:16:59;100151.99;;;17.29;60.30
64632;BME280;58358;50.936;0.246;2022-09-09T11:19:28;100165.16;;;16.68;64.14
64632;BME280;58358;50.936;0.246;2022-09-09T11:21:49;100160.87;;;16.21;62.21
64632;BME280;58358;50.936;0.246;2022-09-09T11:24:18;100161.36;;;18.21;59.21
64632;BME280;58358;50.936;0.246;2022-09-09T11:26:44;100156.17;;;18.74;58.95
64632;BME280;58358;50.936;0.246;2022-09-09T11:29:18;100163.56;;;16.57;62.40
64632;BME280;58358;50.936;0.246;2022-09-09T11:31:44;100157.64;;;17.77;60.09
64632;BME280;58358;50.936;0.246;2022-09-09T11:34:08;100156.19;;;18.41;56.44
64632;BME280;58358;50.936;0.246;2022-09-09T11:36:35;100157.69;;;19.58;54.88
64632;BME280;58358;50.936;0.246;2022-09-09T11:38:52;100160.33;;;16.90;59.09
64632;BME280;58358;50.936;0.246;2022-09-09T11:41:15;100162.37;;;18.44;55.53
64632;BME280;58358;50.936;0.246;2022-09-09T11:43:41;100164.08;;;19.20;54.61
64632;BME280;58358;50.936;0.246;2022-09-09T11:46:04;100158.54;;;17.92;56.92
64632;BME280;58358;50.936;0.246;2022-09-09T11:48:33;100161.45;;;18.62;55.91
64632;BME280;58358;50.936;0.246;2022-09-09T11:51:02;100161.92;;;18.52;54.56
64632;BME280;58358;50.936;0.246;2022-09-09T11:53:22;100162.41;;;17.84;58.32
64632;BME280;58358;50.936;0.246;2022-09-09T11:55:46;100167.05;;;16.72;58.25
64632;BME280;58358;50.936;0.246;2022-09-09T11:58:17;100162.74;;;17.29;58.07
64632;BME280;58358;50.936;0.246;2022-09-09T12:00:39;100170.54;;;18.27;56.09
64632;BME280;58358;50.936;0.246;2022-09-09T12:03:04;100168.02;;;18.34;55.70
64632;BME280;58358;50.936;0.246;2022-09-09T12:05:36;100170.26;;;17.97;59.30
64632;BME280;58358;50.936;0.246;2022-09-09T12:07:56;100169.09;;;17.76;58.31
64632;BME280;58358;50.936;0.246;2022-09-09T12:10:23;100171.49;;;19.47;53.85
64632;BME280;58358;50.936;0.246;2022-09-09T12:12:46;100168.17;;;18.51;53.17
64632;BME280;58358;50.936;0.246;2022-09-09T12:15:22;100169.96;;;18.80;53.96
64632;BME280;58358;50.936;0.246;2022-09-09T12:17:42;100168.97;;;19.15;53.55
64632;BME280;58358;50.936;0.246;2022-09-09T12:20:11;100167.72;;;18.29;53.89
64632;BME280;58358;50.936;0.246;2022-09-09T12:22:35;100172.71;;;18.38;53.86
64632;BME280;58358;50.936;0.246;2022-09-09T12:24:58;100168.47;;;17.38;54.48
64632;BME280;58358;50.936;0.246;2022-09-09T12:27:23;100173.08;;;18.01;56.70
64632;BME280;58358;50.936;0.246;2022-09-09T12:29:50;100185.17;;;16.84;59.97
64632;BME280;58358;50.936;0.246;2022-09-09T12:32:11;100187.47;;;16.00;62.78
64632;BME280;58358;50.936;0.246;2022-09-09T12:34:41;100181.27;;;16.20;63.05
64632;BME280;58358;50.936;0.246;2022-09-09T12:37:06;100182.90;;;16.42;65.32
64632;BME280;58358;50.936;0.246;2022-09-09T12:39:31;100181.66;;;16.47;63.51
64632;BME280;58358;50.936;0.246;2022-09-09T12:41:54;100187.48;;;15.98;63.65
64632;BME280;58358;50.936;0.246;2022-09-09T12:44:18;100184.62;;;16.74;63.77
64632;BME280;58358;50.936;0.246;2022-09-09T12:46:46;100186.25;;;16.83;60.92
64632;BME280;58358;50.936;0.246;2022-09-09T12:49:24;100190.50;;;17.14;62.47
64632;BME280;58358;50.936;0.246;2022-09-09T12:51:35;100184.45;;;17.96;58.88